sensor_id;sensor_type;location;lat;lon;timestamp;pressure;altitude;pressure_sealevel;temperature;humidity
65054;BME280;51639;47.828;35.038;2023-04-19T00:04:14;99931.44;;;14.45;100.00
65054;BME280;51639;47.828;35.038;2023-04-19T00:19:16;99909.16;;;14.25;100.00
65054;BME280;51639;47.828;35.038;2023-04-19T00:34:18;99910.47;;;14.11;100.00
65054;BME280;51639;47.828;35.038;2023-04-19T00:49:21;99908.81;;;14.14;100.00
65054;BME280;51639;47.828;35.038;2023-04-19T01:04:23;99878.03;;;14.13;100.00
65054;BME280;51639;47.828;35.038;2023-04-19T01:19:26;99866.03;;;14.11;100.00
65054;BME280;51639;47.828;35.038;2023-04-19T01:34:28;99853.47;;;14.13;100.00
65054;BME280;51639;47.828;35.038;2023-04-19T01:49:30;99880.47;;;14.20;100.00
65054;BME280;51639;47.828;35.038;2023-04-19T02:04:32;99850.41;;;14.11;100.00
65054;BME280;51639;47.828;35.038;2023-04-19T02:19:34;99861.59;;;14.04;100.00
65054;BME280;51639;47.828;35.038;2023-04-19T02:34:36;99864.69;;;13.84;100.00
65054;BME280;51639;47.828;35.038;2023-04-19T02:49:38;99839.94;;;13.57;100.00
65054;BME280;51639;47.828;35.038;2023-04-19T03:04:42;99847.88;;;13.64;100.00
65054;BME280;51639;47.828;35.038;2023-04-19T03:19:44;99846.09;;;13.70;100.00
65054;BME280;51639;47.828;35.038;2023-04-19T03:34:45;99839.69;;;13.64;100.00
65054;BME280;51639;47.828;35.038;2023-04-19T03:49:47;99824.44;;;13.76;100.00
65054;BME280;51639;47.828;35.038;2023-04-19T04:04:53;99818.47;;;13.90;100.00
65054;BME280;51639;47.828;35.038;2023-04-19T04:19:55;99802.38;;;13.83;100.00
65054;BME280;51639;47.828;35.038;2023-04-19T04:34:57;99774.25;;;14.44;100.00
65054;BME280;51639;47.828;35.038;2023-04-19T04:49:59;99766.53;;;15.34;100.00
65054;BME280;51639;47.828;35.038;2023-04-19T05:05:03;99769.50;;;15.73;100.00
65054;BME280;51639;47.828;35.038;2023-04-19T05:20:05;99774.13;;;15.57;100.00
65054;BME280;51639;47.828;35.038;2023-04-19T05:35:07;99800.91;;;15.86;100.00
65054;BME280;51639;47.828;35.038;2023-04-19T05:50:09;99801.22;;;15.88;100.00
65054;BME280;51639;47.828;35.038;2023-04-19T06:05:11;99866.03;;;15.64;100.00
65054;BME280;51639;47.828;35.038;2023-04-19T06:20:14;99862.63;;;15.96;100.00
65054;BME280;51639;47.828;35.038;2023-04-19T06:35:16;99862.19;;;16.31;100.00
65054;BME280;51639;47.828;35.038;2023-04-19T06:50:18;99856.38;;;16.47;100.00
65054;BME280;51639;47.828;35.038;2023-04-19T07:21:42;99815.81;;;18.26;100.00
65054;BME280;51639;47.828;35.038;2023-04-19T07:36:44;99795.72;;;18.95;100.00
65054;BME280;51639;47.828;35.038;2023-04-19T07:51:46;99788.94;;;19.94;100.00
65054;BME280;51639;47.828;35.038;2023-04-19T08:06:48;99785.63;;;19.07;100.00
65054;BME280;51639;47.828;35.038;2023-04-19T08:21:50;99785.09;;;18.62;100.00
65054;BME280;51639;47.828;35.038;2023-04-19T08:36:54;99796.09;;;18.83;100.00
65054;BME280;51639;47.828;35.038;2023-04-19T08:52:08;99779.53;;;19.75;100.00
65054;BME280;51639;47.828;35.038;2023-04-19T09:07:23;99782.66;;;19.62;100.00
65054;BME280;51639;47.828;35.038;2023-04-19T09:22:25;99780.00;;;19.48;100.00
65054;BME280;51639;47.828;35.038;2023-04-19T09:37:27;99778.72;;;19.43;100.00
65054;BME280;51639;47.828;35.038;2023-04-19T09:52:33;99799.06;;;19.25;100.00
65054;BME280;51639;47.828;35.038;2023-04-19T10:07:35;99789.72;;;19.17;100.00
65054;BME280;51639;47.828;35.038;2023-04-19T10:22:38;99801.44;;;18.92;100.00
65054;BME280;51639;47.828;35.038;2023-04-19T10:37:40;99820.63;;;18.31;100.00
65054;BME280;51639;47.828;35.038;2023-04-19T10:52:43;99828.25;;;17.62;100.00
65054;BME280;51639;47.828;35.038;2023-04-19T11:07:45;99836.38;;;17.57;100.00
65054;BME280;51639;47.828;35.038;2023-04-19T11:22:46;99825.94;;;17.31;100.00
65054;BME280;51639;47.828;35.038;2023-04-19T11:37:49;99826.91;;;16.66;100.00
65054;BME280;51639;47.828;35.038;2023-04-19T11:52:51;99828.09;;;16.32;100.00
65054;BME280;51639;47.828;35.038;2023-04-19T12:08:01;99830.41;;;15.91;100.00
65054;BME280;51639;47.828;35.038;2023-04-19T12:23:04;99824.69;;;15.53;100.00
65054;BME280;51639;47.828;35.038;2023-04-19T12:38:07;99826.53;;;15.19;100.00
65054;BME280;51639;47.828;35.038;2023-04-19T12:53:10;99825.34;;;15.11;100.00
65054;BME280;51639;47.828;35.038;2023-04-19T13:08:14;99827.78;;;15.09;100.00
65054;BME280;51639;47.828;35.038;2023-04-19T13:23:18;99821.94;;;14.61;100.00
65054;BME280;51639;47.828;35.038;2023-04-19T13:38:21;99821.19;;;14.61;100.00
65054;BME280;51639;47.828;35.038;2023-04-19T13:53:25;99820.41;;;14.51;100.00
65054;BME280;51639;47.828;35.038;2023-04-19T14:08:27;99806.72;;;14.51;100.00
65054;BME280;51639;47.828;35.038;2023-04-19T14:23:29;99805.91;;;14.32;100.00
65054;BME280;51639;47.828;35.038;2023-04-19T14:38:31;99803.00;;;14.27;100.00
65054;BME280;51639;47.828;35.038;2023-04-19T14:53:34;99789.81;;;13.85;100.00
65054;BME280;51639;47.828;35.038;2023-04-19T15:08:36;99791.53;;;13.70;100.00
65054;BME280;51639;47.828;35.038;2023-04-19T15:23:39;99765.00;;;13.40;100.00
65054;BME280;51639;47.828;35.038;2023-04-19T15:38:41;99749.22;;;13.35;100.00
65054;BME280;51639;47.828;35.038;2023-04-19T15:53:45;99748.91;;;13.32;100.00
65054;BME280;51639;47.828;35.038;2023-04-19T16:08:48;99758.25;;;13.22;100.00
65054;BME280;51639;47.828;35.038;2023-04-19T16:23:52;99729.25;;;13.38;100.00
65054;BME280;51639;47.828;35.038;2023-04-19T16:38:54;99723.56;;;13.54;100.00
65054;BME280;51639;47.828;35.038;2023-04-19T16:53:56;99750.88;;;13.32;100.00
65054;BME280;51639;47.828;35.038;2023-04-19T17:09:00;99765.34;;;13.07;100.00
65054;BME280;51639;47.828;35.038;2023-04-19T17:24:05;99761.22;;;13.15;100.00
65054;BME280;51639;47.828;35.038;2023-04-19T17:39:07;99768.63;;;13.37;100.00
65054;BME280;51639;47.828;35.038;2023-04-19T17:54:12;99758.03;;;13.39;100.00
65054;BME280;51639;47.828;35.038;2023-04-19T18:09:18;99743.31;;;13.36;100.00
65054;BME280;51639;47.828;35.038;2023-04-19T18:24:20;99722.41;;;13.11;100.00
65054;BME280;51639;47.828;35.038;2023-04-19T18:39:22;99716.06;;;13.14;100.00
65054;BME280;51639;47.828;35.038;2023-04-19T18:54:24;99701.78;;;13.10;100.00
65054;BME280;51639;47.828;35.038;2023-04-19T19:09:26;99699.72;;;13.14;100.00
65054;BME280;51639;47.828;35.038;2023-04-19T19:24:28;99682.59;;;13.14;100.00
65054;BME280;51639;47.828;35.038;2023-04-19T19:39:30;99674.88;;;13.12;100.00
65054;BME280;51639;47.828;35.038;2023-04-19T19:54:41;99659.97;;;13.04;100.00
65054;BME280;51639;47.828;35.038;2023-04-19T20:09:43;99634.69;;;13.25;100.00
65054;BME280;51639;47.828;35.038;2023-04-19T20:24:45;99642.44;;;12.61;100.00
65054;BME280;51639;47.828;35.038;2023-04-19T20:39:48;99627.94;;;12.64;100.00
65054;BME280;51639;47.828;35.038;2023-04-19T20:54:50;99612.94;;;12.60;100.00
65054;BME280;51639;47.828;35.038;2023-04-19T21:09:52;99617.81;;;12.65;100.00
65054;BME280;51639;47.828;35.038;2023-04-19T21:24:57;99583.75;;;12.60;100.00
65054;BME280;51639;47.828;35.038;2023-04-19T21:39:59;99579.13;;;12.70;100.00
65054;BME280;51639;47.828;35.038;2023-04-19T21:55:01;99569.72;;;12.93;100.00
65054;BME280;51639;47.828;35.038;2023-04-19T22:10:03;99549.31;;;12.97;100.00
65054;BME280;51639;47.828;35.038;2023-04-19T22:25:07;99527.03;;;12.90;100.00
65054;BME280;51639;47.828;35.038;2023-04-19T22:40:09;99517.06;;;13.05;100.00
65054;BME280;51639;47.828;35.038;2023-04-19T22:55:11;99493.75;;;12.95;100.00
65054;BME280;51639;47.828;35.038;2023-04-19T23:10:13;99479.50;;;12.91;100.00
65054;BME280;51639;47.828;35.038;2023-04-19T23:25:15;99470.44;;;13.03;100.00
65054;BME280;51639;47.828;35.038;2023-04-19T23:40:17;99456.44;;;13.23;100.00
65054;BME280;51639;47.828;35.038;2023-04-19T23:55:19;99452.81;;;13.17;100.00
